sensor_id;sensor_type;location;lat;lon;timestamp;P1;durP1;ratioP1;P2;durP2;ratioP2
16954;SDS011;8594;52.052;8.354;2022-07-23T00:01:37;7.73;;;5.07;;
16954;SDS011;8594;52.052;8.354;2022-07-23T00:04:06;9.90;;;5.50;;
16954;SDS011;8594;52.052;8.354;2022-07-23T00:06:34;8.10;;;5.33;;
16954;SDS011;8594;52.052;8.354;2022-07-23T00:09:01;11.30;;;5.10;;
16954;SDS011;8594;52.052;8.354;2022-07-23T00:11:28;8.70;;;5.60;;
16954;SDS011;8594;52.052;8.354;2022-07-23T00:13:55;8.83;;;4.90;;
16954;SDS011;8594;52.052;8.354;2022-07-23T00:16:22;8.30;;;4.80;;
16954;SDS011;8594;52.052;8.354;2022-07-23T00:18:49;9.43;;;5.53;;
16954;SDS011;8594;52.052;8.354;2022-07-23T00:21:16;10.40;;;5.00;;
16954;SDS011;8594;52.052;8.354;2022-07-23T00:23:44;10.23;;;5.50;;
16954;SDS011;8594;52.052;8.354;2022-07-23T00:26:11;11.47;;;4.70;;
16954;SDS011;8594;52.052;8.354;2022-07-23T00:28:38;8.33;;;5.30;;
16954;SDS011;8594;52.052;8.354;2022-07-23T00:31:05;9.73;;;5.07;;
16954;SDS011;8594;52.052;8.354;2022-07-23T00:33:32;13.37;;;5.40;;
16954;SDS011;8594;52.052;8.354;2022-07-23T00:35:59;8.13;;;4.30;;
16954;SDS011;8594;52.052;8.354;2022-07-23T00:38:26;8.80;;;4.60;;
16954;SDS011;8594;52.052;8.354;2022-07-23T00:40:54;8.83;;;4.47;;
16954;SDS011;8594;52.052;8.354;2022-07-23T00:43:21;10.43;;;4.20;;
16954;SDS011;8594;52.052;8.354;2022-07-23T00:45:49;8.60;;;4.67;;
16954;SDS011;8594;52.052;8.354;2022-07-23T00:48:16;9.50;;;4.63;;
16954;SDS011;8594;52.052;8.354;2022-07-23T00:50:42;12.87;;;4.90;;
16954;SDS011;8594;52.052;8.354;2022-07-23T00:53:10;7.77;;;4.70;;
16954;SDS011;8594;52.052;8.354;2022-07-23T00:55:38;11.83;;;5.30;;
16954;SDS011;8594;52.052;8.354;2022-07-23T00:58:07;7.07;;;4.43;;
16954;SDS011;8594;52.052;8.354;2022-07-23T01:00:35;7.97;;;4.07;;
16954;SDS011;8594;52.052;8.354;2022-07-23T01:03:02;9.77;;;3.90;;
16954;SDS011;8594;52.052;8.354;2022-07-23T01:05:29;7.73;;;3.83;;
16954;SDS011;8594;52.052;8.354;2022-07-23T01:07:56;6.87;;;3.67;;
16954;SDS011;8594;52.052;8.354;2022-07-23T01:10:23;8.27;;;3.83;;
16954;SDS011;8594;52.052;8.354;2022-07-23T01:13:00;6.43;;;3.73;;
16954;SDS011;8594;52.052;8.354;2022-07-23T01:15:31;9.17;;;3.83;;
16954;SDS011;8594;52.052;8.354;2022-07-23T01:17:59;11.03;;;4.30;;
16954;SDS011;8594;52.052;8.354;2022-07-23T01:20:26;6.53;;;4.57;;
16954;SDS011;8594;52.052;8.354;2022-07-23T01:22:54;8.50;;;4.90;;
16954;SDS011;8594;52.052;8.354;2022-07-23T01:25:22;10.60;;;5.37;;
16954;SDS011;8594;52.052;8.354;2022-07-23T01:27:50;10.17;;;4.27;;
16954;SDS011;8594;52.052;8.354;2022-07-23T01:30:18;9.30;;;4.63;;
16954;SDS011;8594;52.052;8.354;2022-07-23T01:32:45;11.10;;;4.57;;
16954;SDS011;8594;52.052;8.354;2022-07-23T01:35:12;11.17;;;4.50;;
16954;SDS011;8594;52.052;8.354;2022-07-23T01:37:39;9.00;;;4.80;;
16954;SDS011;8594;52.052;8.354;2022-07-23T01:40:07;10.07;;;5.87;;
16954;SDS011;8594;52.052;8.354;2022-07-23T01:42:35;10.43;;;5.43;;
16954;SDS011;8594;52.052;8.354;2022-07-23T01:45:03;14.57;;;5.60;;
16954;SDS011;8594;52.052;8.354;2022-07-23T01:47:30;10.63;;;5.63;;
16954;SDS011;8594;52.052;8.354;2022-07-23T01:49:58;16.50;;;6.23;;
16954;SDS011;8594;52.052;8.354;2022-07-23T01:52:25;11.80;;;6.10;;
16954;SDS011;8594;52.052;8.354;2022-07-23T01:54:51;10.20;;;6.37;;
16954;SDS011;8594;52.052;8.354;2022-07-23T01:57:20;12.77;;;6.63;;
16954;SDS011;8594;52.052;8.354;2022-07-23T01:59:47;12.30;;;6.40;;
16954;SDS011;8594;52.052;8.354;2022-07-23T02:02:13;14.70;;;6.33;;
16954;SDS011;8594;52.052;8.354;2022-07-23T02:04:40;10.33;;;5.93;;
16954;SDS011;8594;52.052;8.354;2022-07-23T02:07:07;10.73;;;5.93;;
16954;SDS011;8594;52.052;8.354;2022-07-23T02:09:34;11.87;;;5.77;;
16954;SDS011;8594;52.052;8.354;2022-07-23T02:12:01;9.83;;;5.70;;
16954;SDS011;8594;52.052;8.354;2022-07-23T02:14:29;10.03;;;5.97;;
16954;SDS011;8594;52.052;8.354;2022-07-23T02:16:56;11.33;;;6.17;;
16954;SDS011;8594;52.052;8.354;2022-07-23T02:19:23;12.70;;;5.70;;
16954;SDS011;8594;52.052;8.354;2022-07-23T02:21:50;8.87;;;5.87;;
16954;SDS011;8594;52.052;8.354;2022-07-23T02:24:17;15.53;;;5.70;;
16954;SDS011;8594;52.052;8.354;2022-07-23T02:26:44;12.80;;;6.13;;
16954;SDS011;8594;52.052;8.354;2022-07-23T02:29:11;12.27;;;6.33;;
16954;SDS011;8594;52.052;8.354;2022-07-23T02:31:39;14.20;;;6.50;;
16954;SDS011;8594;52.052;8.354;2022-07-23T02:34:06;12.70;;;6.20;;
16954;SDS011;8594;52.052;8.354;2022-07-23T02:36:36;16.17;;;6.10;;
16954;SDS011;8594;52.052;8.354;2022-07-23T02:39:04;9.57;;;5.73;;
16954;SDS011;8594;52.052;8.354;2022-07-23T02:41:31;12.97;;;6.00;;
16954;SDS011;8594;52.052;8.354;2022-07-23T02:43:57;12.50;;;6.27;;
16954;SDS011;8594;52.052;8.354;2022-07-23T02:46:24;10.60;;;6.50;;
16954;SDS011;8594;52.052;8.354;2022-07-23T02:48:52;8.90;;;5.87;;
16954;SDS011;8594;52.052;8.354;2022-07-23T02:51:19;11.07;;;6.30;;
16954;SDS011;8594;52.052;8.354;2022-07-23T02:53:46;18.23;;;6.23;;
16954;SDS011;8594;52.052;8.354;2022-07-23T02:56:13;9.23;;;6.13;;
16954;SDS011;8594;52.052;8.354;2022-07-23T02:58:39;10.17;;;5.50;;
16954;SDS011;8594;52.052;8.354;2022-07-23T03:01:06;12.27;;;6.43;;
16954;SDS011;8594;52.052;8.354;2022-07-23T03:03:33;10.00;;;5.97;;
16954;SDS011;8594;52.052;8.354;2022-07-23T03:06:01;12.20;;;6.10;;
16954;SDS011;8594;52.052;8.354;2022-07-23T03:08:28;11.97;;;5.70;;
16954;SDS011;8594;52.052;8.354;2022-07-23T03:10:55;11.13;;;5.80;;
16954;SDS011;8594;52.052;8.354;2022-07-23T03:13:22;9.10;;;5.90;;
16954;SDS011;8594;52.052;8.354;2022-07-23T03:15:49;12.60;;;5.93;;
16954;SDS011;8594;52.052;8.354;2022-07-23T03:18:16;15.27;;;6.27;;
16954;SDS011;8594;52.052;8.354;2022-07-23T03:20:43;11.97;;;5.37;;
16954;SDS011;8594;52.052;8.354;2022-07-23T03:23:11;10.77;;;5.80;;
16954;SDS011;8594;52.052;8.354;2022-07-23T03:25:38;10.73;;;5.47;;
16954;SDS011;8594;52.052;8.354;2022-07-23T03:28:04;11.57;;;4.93;;
16954;SDS011;8594;52.052;8.354;2022-07-23T03:30:31;10.13;;;5.30;;
16954;SDS011;8594;52.052;8.354;2022-07-23T03:32:58;10.20;;;5.40;;
16954;SDS011;8594;52.052;8.354;2022-07-23T03:35:25;9.53;;;5.47;;
16954;SDS011;8594;52.052;8.354;2022-07-23T03:37:52;14.40;;;5.77;;
16954;SDS011;8594;52.052;8.354;2022-07-23T03:40:20;8.87;;;5.87;;
16954;SDS011;8594;52.052;8.354;2022-07-23T03:42:47;11.73;;;5.97;;
16954;SDS011;8594;52.052;8.354;2022-07-23T03:45:14;9.70;;;5.63;;
16954;SDS011;8594;52.052;8.354;2022-07-23T03:47:41;13.43;;;6.13;;
16954;SDS011;8594;52.052;8.354;2022-07-23T03:50:08;8.67;;;5.10;;
16954;SDS011;8594;52.052;8.354;2022-07-23T03:52:35;10.57;;;5.80;;
16954;SDS011;8594;52.052;8.354;2022-07-23T03:55:02;12.67;;;6.00;;
16954;SDS011;8594;52.052;8.354;2022-07-23T03:57:32;11.00;;;5.97;;
16954;SDS011;8594;52.052;8.354;2022-07-23T03:59:59;13.53;;;6.00;;
16954;SDS011;8594;52.052;8.354;2022-07-23T04:02:26;8.60;;;5.83;;
16954;SDS011;8594;52.052;8.354;2022-07-23T04:04:53;10.77;;;6.03;;
16954;SDS011;8594;52.052;8.354;2022-07-23T04:07:19;9.90;;;6.27;;
16954;SDS011;8594;52.052;8.354;2022-07-23T04:09:47;14.80;;;6.17;;
16954;SDS011;8594;52.052;8.354;2022-07-23T04:12:14;13.10;;;6.13;;
16954;SDS011;8594;52.052;8.354;2022-07-23T04:14:42;15.20;;;6.53;;
16954;SDS011;8594;52.052;8.354;2022-07-23T04:17:09;10.97;;;5.93;;
16954;SDS011;8594;52.052;8.354;2022-07-23T04:19:36;9.87;;;6.03;;
16954;SDS011;8594;52.052;8.354;2022-07-23T04:22:05;12.23;;;6.70;;
16954;SDS011;8594;52.052;8.354;2022-07-23T04:24:32;12.80;;;5.70;;
16954;SDS011;8594;52.052;8.354;2022-07-23T04:27:00;11.10;;;6.23;;
16954;SDS011;8594;52.052;8.354;2022-07-23T04:29:27;13.07;;;6.70;;
16954;SDS011;8594;52.052;8.354;2022-07-23T04:31:55;10.87;;;6.53;;
16954;SDS011;8594;52.052;8.354;2022-07-23T04:34:22;11.97;;;5.37;;
16954;SDS011;8594;52.052;8.354;2022-07-23T04:36:51;9.43;;;5.00;;
16954;SDS011;8594;52.052;8.354;2022-07-23T04:39:18;9.93;;;6.40;;
16954;SDS011;8594;52.052;8.354;2022-07-23T04:41:45;13.83;;;5.87;;
16954;SDS011;8594;52.052;8.354;2022-07-23T04:44:12;14.30;;;6.50;;
16954;SDS011;8594;52.052;8.354;2022-07-23T04:46:39;11.37;;;6.17;;
16954;SDS011;8594;52.052;8.354;2022-07-23T04:49:07;10.33;;;5.43;;
16954;SDS011;8594;52.052;8.354;2022-07-23T04:51:33;8.90;;;5.13;;
16954;SDS011;8594;52.052;8.354;2022-07-23T04:54:00;12.43;;;5.57;;
16954;SDS011;8594;52.052;8.354;2022-07-23T04:56:27;10.40;;;5.30;;
16954;SDS011;8594;52.052;8.354;2022-07-23T04:58:54;11.30;;;5.40;;
16954;SDS011;8594;52.052;8.354;2022-07-23T05:01:21;10.47;;;5.00;;
16954;SDS011;8594;52.052;8.354;2022-07-23T05:03:48;11.30;;;5.23;;
16954;SDS011;8594;52.052;8.354;2022-07-23T05:06:16;12.00;;;5.10;;
16954;SDS011;8594;52.052;8.354;2022-07-23T05:08:43;9.70;;;4.50;;
16954;SDS011;8594;52.052;8.354;2022-07-23T05:11:09;8.97;;;4.60;;
16954;SDS011;8594;52.052;8.354;2022-07-23T05:13:36;10.33;;;4.63;;
16954;SDS011;8594;52.052;8.354;2022-07-23T05:16:03;6.87;;;4.37;;
16954;SDS011;8594;52.052;8.354;2022-07-23T05:18:31;9.27;;;4.60;;
16954;SDS011;8594;52.052;8.354;2022-07-23T05:20:57;7.10;;;4.73;;
16954;SDS011;8594;52.052;8.354;2022-07-23T05:23:26;8.93;;;4.63;;
16954;SDS011;8594;52.052;8.354;2022-07-23T05:25:52;6.73;;;4.40;;
16954;SDS011;8594;52.052;8.354;2022-07-23T05:28:19;9.27;;;4.70;;
16954;SDS011;8594;52.052;8.354;2022-07-23T05:30:46;8.67;;;4.87;;
16954;SDS011;8594;52.052;8.354;2022-07-23T05:33:13;8.53;;;4.00;;
16954;SDS011;8594;52.052;8.354;2022-07-23T05:35:39;9.27;;;4.17;;
16954;SDS011;8594;52.052;8.354;2022-07-23T05:38:06;10.70;;;4.80;;
16954;SDS011;8594;52.052;8.354;2022-07-23T05:40:34;9.97;;;4.73;;
16954;SDS011;8594;52.052;8.354;2022-07-23T05:43:01;9.60;;;4.40;;
16954;SDS011;8594;52.052;8.354;2022-07-23T05:45:28;7.37;;;4.37;;
16954;SDS011;8594;52.052;8.354;2022-07-23T05:47:55;7.33;;;3.80;;
16954;SDS011;8594;52.052;8.354;2022-07-23T05:50:22;8.90;;;4.23;;
16954;SDS011;8594;52.052;8.354;2022-07-23T05:52:49;9.47;;;4.47;;
16954;SDS011;8594;52.052;8.354;2022-07-23T05:55:15;8.33;;;4.07;;
16954;SDS011;8594;52.052;8.354;2022-07-23T05:57:44;8.60;;;3.97;;
16954;SDS011;8594;52.052;8.354;2022-07-23T06:00:11;5.27;;;3.43;;
16954;SDS011;8594;52.052;8.354;2022-07-23T06:02:38;7.60;;;4.20;;
16954;SDS011;8594;52.052;8.354;2022-07-23T06:05:06;7.73;;;3.73;;
16954;SDS011;8594;52.052;8.354;2022-07-23T06:07:33;7.40;;;4.13;;
16954;SDS011;8594;52.052;8.354;2022-07-23T06:10:01;5.90;;;3.60;;
16954;SDS011;8594;52.052;8.354;2022-07-23T06:12:29;7.17;;;3.47;;
16954;SDS011;8594;52.052;8.354;2022-07-23T06:14:57;6.23;;;3.60;;
16954;SDS011;8594;52.052;8.354;2022-07-23T06:17:24;5.67;;;2.80;;
16954;SDS011;8594;52.052;8.354;2022-07-23T06:19:51;6.87;;;3.53;;
16954;SDS011;8594;52.052;8.354;2022-07-23T06:22:18;6.67;;;3.60;;
16954;SDS011;8594;52.052;8.354;2022-07-23T06:24:46;5.03;;;2.90;;
16954;SDS011;8594;52.052;8.354;2022-07-23T06:27:13;4.37;;;2.67;;
16954;SDS011;8594;52.052;8.354;2022-07-23T06:29:40;6.77;;;3.47;;
16954;SDS011;8594;52.052;8.354;2022-07-23T06:32:08;6.20;;;3.23;;
16954;SDS011;8594;52.052;8.354;2022-07-23T06:34:35;4.37;;;2.73;;
16954;SDS011;8594;52.052;8.354;2022-07-23T06:37:01;7.00;;;3.20;;
16954;SDS011;8594;52.052;8.354;2022-07-23T06:39:29;5.40;;;3.00;;
16954;SDS011;8594;52.052;8.354;2022-07-23T06:41:57;6.50;;;3.03;;
16954;SDS011;8594;52.052;8.354;2022-07-23T06:44:26;8.70;;;3.20;;
16954;SDS011;8594;52.052;8.354;2022-07-23T06:46:52;5.83;;;3.10;;
16954;SDS011;8594;52.052;8.354;2022-07-23T06:49:20;12.63;;;7.97;;
16954;SDS011;8594;52.052;8.354;2022-07-23T06:51:47;5.93;;;3.30;;
16954;SDS011;8594;52.052;8.354;2022-07-23T06:54:14;6.60;;;3.27;;
16954;SDS011;8594;52.052;8.354;2022-07-23T06:56:41;7.33;;;3.57;;
16954;SDS011;8594;52.052;8.354;2022-07-23T06:59:08;10.23;;;4.70;;
16954;SDS011;8594;52.052;8.354;2022-07-23T07:01:35;4.80;;;3.00;;
16954;SDS011;8594;52.052;8.354;2022-07-23T07:04:02;9.77;;;3.90;;
16954;SDS011;8594;52.052;8.354;2022-07-23T07:06:31;8.17;;;3.83;;
16954;SDS011;8594;52.052;8.354;2022-07-23T07:08:57;7.57;;;3.67;;
16954;SDS011;8594;52.052;8.354;2022-07-23T07:11:24;6.47;;;3.63;;
16954;SDS011;8594;52.052;8.354;2022-07-23T07:13:51;8.00;;;3.67;;
16954;SDS011;8594;52.052;8.354;2022-07-23T07:16:18;8.73;;;3.90;;
16954;SDS011;8594;52.052;8.354;2022-07-23T07:18:45;8.20;;;3.97;;
16954;SDS011;8594;52.052;8.354;2022-07-23T07:21:12;9.20;;;3.40;;
16954;SDS011;8594;52.052;8.354;2022-07-23T07:23:40;8.87;;;3.97;;
16954;SDS011;8594;52.052;8.354;2022-07-23T07:26:07;10.60;;;4.17;;
16954;SDS011;8594;52.052;8.354;2022-07-23T07:28:34;6.53;;;3.70;;
16954;SDS011;8594;52.052;8.354;2022-07-23T07:31:01;8.23;;;3.80;;
16954;SDS011;8594;52.052;8.354;2022-07-23T07:33:28;5.93;;;3.57;;
16954;SDS011;8594;52.052;8.354;2022-07-23T07:35:54;8.07;;;3.50;;
16954;SDS011;8594;52.052;8.354;2022-07-23T07:38:21;5.93;;;3.27;;
16954;SDS011;8594;52.052;8.354;2022-07-23T07:40:50;11.53;;;3.70;;
16954;SDS011;8594;52.052;8.354;2022-07-23T07:43:17;7.57;;;3.57;;
16954;SDS011;8594;52.052;8.354;2022-07-23T07:45:44;6.70;;;3.30;;
16954;SDS011;8594;52.052;8.354;2022-07-23T07:48:10;10.30;;;3.80;;
16954;SDS011;8594;52.052;8.354;2022-07-23T07:50:37;7.53;;;3.27;;
16954;SDS011;8594;52.052;8.354;2022-07-23T07:53:04;6.70;;;3.50;;
16954;SDS011;8594;52.052;8.354;2022-07-23T07:55:31;5.33;;;3.70;;
16954;SDS011;8594;52.052;8.354;2022-07-23T07:57:59;6.27;;;3.27;;
16954;SDS011;8594;52.052;8.354;2022-07-23T08:00:26;6.03;;;3.00;;
16954;SDS011;8594;52.052;8.354;2022-07-23T08:02:54;4.50;;;2.97;;
16954;SDS011;8594;52.052;8.354;2022-07-23T08:05:21;5.17;;;3.40;;
16954;SDS011;8594;52.052;8.354;2022-07-23T08:07:50;8.23;;;3.17;;
16954;SDS011;8594;52.052;8.354;2022-07-23T08:10:17;4.97;;;2.93;;
16954;SDS011;8594;52.052;8.354;2022-07-23T08:12:46;4.80;;;2.77;;
16954;SDS011;8594;52.052;8.354;2022-07-23T08:15:16;5.90;;;2.70;;
16954;SDS011;8594;52.052;8.354;2022-07-23T08:17:45;6.13;;;2.50;;
16954;SDS011;8594;52.052;8.354;2022-07-23T08:20:14;6.27;;;3.10;;
16954;SDS011;8594;52.052;8.354;2022-07-23T08:22:44;7.13;;;2.97;;
16954;SDS011;8594;52.052;8.354;2022-07-23T08:25:13;8.70;;;4.07;;
16954;SDS011;8594;52.052;8.354;2022-07-23T08:27:41;5.03;;;3.37;;
16954;SDS011;8594;52.052;8.354;2022-07-23T08:30:09;5.17;;;3.37;;
16954;SDS011;8594;52.052;8.354;2022-07-23T08:32:51;7.97;;;3.50;;
16954;SDS011;8594;52.052;8.354;2022-07-23T08:35:24;5.47;;;3.30;;
16954;SDS011;8594;52.052;8.354;2022-07-23T08:37:55;6.97;;;3.30;;
16954;SDS011;8594;52.052;8.354;2022-07-23T08:40:23;6.10;;;3.20;;
16954;SDS011;8594;52.052;8.354;2022-07-23T08:42:52;5.07;;;3.20;;
16954;SDS011;8594;52.052;8.354;2022-07-23T08:45:19;5.80;;;3.30;;
16954;SDS011;8594;52.052;8.354;2022-07-23T08:47:50;6.43;;;3.37;;
16954;SDS011;8594;52.052;8.354;2022-07-23T08:50:19;6.67;;;3.50;;
16954;SDS011;8594;52.052;8.354;2022-07-23T08:52:48;7.07;;;3.80;;
16954;SDS011;8594;52.052;8.354;2022-07-23T08:55:15;5.70;;;3.53;;
16954;SDS011;8594;52.052;8.354;2022-07-23T08:57:43;7.50;;;3.70;;
16954;SDS011;8594;52.052;8.354;2022-07-23T09:00:11;4.20;;;3.10;;
16954;SDS011;8594;52.052;8.354;2022-07-23T09:02:39;6.93;;;3.90;;
16954;SDS011;8594;52.052;8.354;2022-07-23T09:05:10;8.37;;;4.10;;
16954;SDS011;8594;52.052;8.354;2022-07-23T09:08:02;5.67;;;3.50;;
16954;SDS011;8594;52.052;8.354;2022-07-23T09:10:49;5.00;;;3.20;;
16954;SDS011;8594;52.052;8.354;2022-07-23T09:13:23;5.97;;;3.70;;
16954;SDS011;8594;52.052;8.354;2022-07-23T09:16:11;8.40;;;3.50;;
16954;SDS011;8594;52.052;8.354;2022-07-23T09:18:42;6.50;;;3.57;;
16954;SDS011;8594;52.052;8.354;2022-07-23T09:21:15;6.67;;;3.97;;
16954;SDS011;8594;52.052;8.354;2022-07-23T09:23:45;5.47;;;3.60;;
16954;SDS011;8594;52.052;8.354;2022-07-23T09:26:17;5.60;;;3.77;;
16954;SDS011;8594;52.052;8.354;2022-07-23T09:29:02;6.40;;;3.40;;
16954;SDS011;8594;52.052;8.354;2022-07-23T09:31:34;7.60;;;3.37;;
16954;SDS011;8594;52.052;8.354;2022-07-23T09:34:11;7.33;;;3.93;;
16954;SDS011;8594;52.052;8.354;2022-07-23T09:36:42;10.63;;;3.93;;
16954;SDS011;8594;52.052;8.354;2022-07-23T09:39:10;9.57;;;4.17;;
16954;SDS011;8594;52.052;8.354;2022-07-23T09:41:39;7.33;;;3.87;;
16954;SDS011;8594;52.052;8.354;2022-07-23T09:44:10;10.03;;;3.57;;
16954;SDS011;8594;52.052;8.354;2022-07-23T09:46:41;8.10;;;3.40;;
16954;SDS011;8594;52.052;8.354;2022-07-23T09:49:10;9.57;;;3.87;;
16954;SDS011;8594;52.052;8.354;2022-07-23T09:51:45;5.60;;;3.43;;
16954;SDS011;8594;52.052;8.354;2022-07-23T09:54:29;5.40;;;3.10;;
16954;SDS011;8594;52.052;8.354;2022-07-23T09:57:02;5.57;;;2.93;;
16954;SDS011;8594;52.052;8.354;2022-07-23T09:59:33;5.97;;;3.13;;
16954;SDS011;8594;52.052;8.354;2022-07-23T10:02:03;4.83;;;3.07;;
16954;SDS011;8594;52.052;8.354;2022-07-23T10:04:31;5.87;;;2.90;;
16954;SDS011;8594;52.052;8.354;2022-07-23T10:07:01;6.50;;;3.10;;
16954;SDS011;8594;52.052;8.354;2022-07-23T10:09:30;6.37;;;2.90;;
16954;SDS011;8594;52.052;8.354;2022-07-23T10:12:00;6.50;;;2.80;;
16954;SDS011;8594;52.052;8.354;2022-07-23T10:14:37;4.80;;;2.80;;
16954;SDS011;8594;52.052;8.354;2022-07-23T10:17:05;7.43;;;3.10;;
16954;SDS011;8594;52.052;8.354;2022-07-23T10:19:33;3.17;;;2.80;;
16954;SDS011;8594;52.052;8.354;2022-07-23T10:22:02;4.57;;;3.00;;
16954;SDS011;8594;52.052;8.354;2022-07-23T10:27:41;4.50;;;2.93;;
16954;SDS011;8594;52.052;8.354;2022-07-23T10:30:34;3.90;;;2.90;;
16954;SDS011;8594;52.052;8.354;2022-07-23T10:33:12;4.50;;;2.93;;
16954;SDS011;8594;52.052;8.354;2022-07-23T10:35:54;5.30;;;2.60;;
16954;SDS011;8594;52.052;8.354;2022-07-23T10:38:32;3.40;;;2.53;;
16954;SDS011;8594;52.052;8.354;2022-07-23T10:41:08;4.63;;;2.63;;
16954;SDS011;8594;52.052;8.354;2022-07-23T10:43:35;7.60;;;2.53;;
16954;SDS011;8594;52.052;8.354;2022-07-23T10:54:49;6.57;;;2.50;;
16954;SDS011;8594;52.052;8.354;2022-07-23T10:57:18;3.77;;;2.10;;
16954;SDS011;8594;52.052;8.354;2022-07-23T11:02:47;4.90;;;1.73;;
16954;SDS011;8594;52.052;8.354;2022-07-23T11:05:16;3.97;;;2.53;;
16954;SDS011;8594;52.052;8.354;2022-07-23T11:10:45;3.40;;;1.90;;
16954;SDS011;8594;52.052;8.354;2022-07-23T11:13:36;3.77;;;2.20;;
16954;SDS011;8594;52.052;8.354;2022-07-23T11:16:22;3.03;;;2.00;;
16954;SDS011;8594;52.052;8.354;2022-07-23T11:18:55;4.73;;;1.90;;
16954;SDS011;8594;52.052;8.354;2022-07-23T11:21:49;5.27;;;1.77;;
16954;SDS011;8594;52.052;8.354;2022-07-23T11:24:18;4.43;;;1.70;;
16954;SDS011;8594;52.052;8.354;2022-07-23T11:26:56;3.30;;;1.90;;
16954;SDS011;8594;52.052;8.354;2022-07-23T11:29:47;4.60;;;2.17;;
16954;SDS011;8594;52.052;8.354;2022-07-23T11:32:38;2.43;;;1.87;;
16954;SDS011;8594;52.052;8.354;2022-07-23T11:35:23;1.77;;;1.60;;
16954;SDS011;8594;52.052;8.354;2022-07-23T11:37:52;3.43;;;2.00;;
16954;SDS011;8594;52.052;8.354;2022-07-23T11:40:28;3.43;;;2.10;;
16954;SDS011;8594;52.052;8.354;2022-07-23T11:42:58;2.77;;;1.90;;
16954;SDS011;8594;52.052;8.354;2022-07-23T11:45:30;4.60;;;1.90;;
16954;SDS011;8594;52.052;8.354;2022-07-23T11:48:02;4.50;;;2.00;;
16954;SDS011;8594;52.052;8.354;2022-07-23T11:50:32;4.00;;;2.07;;
16954;SDS011;8594;52.052;8.354;2022-07-23T11:52:59;3.93;;;1.60;;
16954;SDS011;8594;52.052;8.354;2022-07-23T11:55:26;3.10;;;1.80;;
16954;SDS011;8594;52.052;8.354;2022-07-23T11:57:55;4.00;;;1.90;;
16954;SDS011;8594;52.052;8.354;2022-07-23T12:00:24;4.60;;;1.50;;
16954;SDS011;8594;52.052;8.354;2022-07-23T12:02:55;3.77;;;1.60;;
16954;SDS011;8594;52.052;8.354;2022-07-23T12:05:26;3.53;;;1.77;;
16954;SDS011;8594;52.052;8.354;2022-07-23T12:07:56;2.83;;;1.33;;
16954;SDS011;8594;52.052;8.354;2022-07-23T12:10:27;4.00;;;1.70;;
16954;SDS011;8594;52.052;8.354;2022-07-23T12:12:57;3.20;;;1.60;;
16954;SDS011;8594;52.052;8.354;2022-07-23T12:15:28;4.00;;;1.90;;
16954;SDS011;8594;52.052;8.354;2022-07-23T12:17:57;4.33;;;1.47;;
16954;SDS011;8594;52.052;8.354;2022-07-23T12:20:28;1.97;;;1.37;;
16954;SDS011;8594;52.052;8.354;2022-07-23T12:22:58;3.20;;;1.40;;
16954;SDS011;8594;52.052;8.354;2022-07-23T12:25:28;1.67;;;1.33;;
16954;SDS011;8594;52.052;8.354;2022-07-23T12:28:01;4.50;;;1.13;;
16954;SDS011;8594;52.052;8.354;2022-07-23T12:30:32;4.13;;;1.60;;
16954;SDS011;8594;52.052;8.354;2022-07-23T12:33:04;3.57;;;1.60;;
16954;SDS011;8594;52.052;8.354;2022-07-23T12:35:34;5.60;;;1.23;;
16954;SDS011;8594;52.052;8.354;2022-07-23T12:38:06;4.77;;;1.60;;
16954;SDS011;8594;52.052;8.354;2022-07-23T12:40:35;2.27;;;1.43;;
16954;SDS011;8594;52.052;8.354;2022-07-23T12:43:09;2.47;;;1.40;;
16954;SDS011;8594;52.052;8.354;2022-07-23T12:45:42;2.47;;;1.23;;
16954;SDS011;8594;52.052;8.354;2022-07-23T12:48:16;3.13;;;1.30;;
16954;SDS011;8594;52.052;8.354;2022-07-23T12:50:50;3.60;;;1.30;;
16954;SDS011;8594;52.052;8.354;2022-07-23T12:53:23;2.60;;;1.50;;
16954;SDS011;8594;52.052;8.354;2022-07-23T12:55:58;2.27;;;1.20;;
16954;SDS011;8594;52.052;8.354;2022-07-23T12:58:40;3.50;;;1.17;;
16954;SDS011;8594;52.052;8.354;2022-07-23T13:01:23;2.70;;;1.17;;
16954;SDS011;8594;52.052;8.354;2022-07-23T13:03:56;2.67;;;1.30;;
16954;SDS011;8594;52.052;8.354;2022-07-23T13:06:27;4.93;;;1.60;;
16954;SDS011;8594;52.052;8.354;2022-07-23T13:08:57;8.90;;;3.43;;
16954;SDS011;8594;52.052;8.354;2022-07-23T13:11:24;1.37;;;1.03;;
16954;SDS011;8594;52.052;8.354;2022-07-23T13:13:52;1.67;;;1.30;;
16954;SDS011;8594;52.052;8.354;2022-07-23T13:16:19;3.37;;;1.37;;
16954;SDS011;8594;52.052;8.354;2022-07-23T13:18:46;2.30;;;1.40;;
16954;SDS011;8594;52.052;8.354;2022-07-23T13:21:13;2.17;;;1.10;;
16954;SDS011;8594;52.052;8.354;2022-07-23T13:23:40;2.03;;;1.17;;
16954;SDS011;8594;52.052;8.354;2022-07-23T13:26:08;1.80;;;1.00;;
16954;SDS011;8594;52.052;8.354;2022-07-23T13:28:35;3.57;;;1.53;;
16954;SDS011;8594;52.052;8.354;2022-07-23T13:31:03;1.57;;;1.00;;
16954;SDS011;8594;52.052;8.354;2022-07-23T13:33:30;5.07;;;1.50;;
16954;SDS011;8594;52.052;8.354;2022-07-23T13:35:57;1.73;;;1.20;;
16954;SDS011;8594;52.052;8.354;2022-07-23T13:38:24;3.97;;;1.33;;
16954;SDS011;8594;52.052;8.354;2022-07-23T13:40:51;3.33;;;1.30;;
16954;SDS011;8594;52.052;8.354;2022-07-23T13:43:21;2.80;;;1.10;;
16954;SDS011;8594;52.052;8.354;2022-07-23T13:45:50;2.83;;;1.13;;
16954;SDS011;8594;52.052;8.354;2022-07-23T13:48:20;4.47;;;1.60;;
16954;SDS011;8594;52.052;8.354;2022-07-23T13:50:48;3.00;;;1.40;;
16954;SDS011;8594;52.052;8.354;2022-07-23T13:53:16;2.40;;;1.40;;
16954;SDS011;8594;52.052;8.354;2022-07-23T13:55:45;2.60;;;1.20;;
16954;SDS011;8594;52.052;8.354;2022-07-23T13:58:14;4.70;;;1.40;;
16954;SDS011;8594;52.052;8.354;2022-07-23T14:00:41;5.23;;;1.63;;
16954;SDS011;8594;52.052;8.354;2022-07-23T14:03:11;2.37;;;1.30;;
16954;SDS011;8594;52.052;8.354;2022-07-23T14:05:39;4.67;;;1.47;;
16954;SDS011;8594;52.052;8.354;2022-07-23T14:08:06;1.63;;;1.10;;
16954;SDS011;8594;52.052;8.354;2022-07-23T14:10:33;2.87;;;1.53;;
16954;SDS011;8594;52.052;8.354;2022-07-23T14:13:01;2.53;;;1.37;;
16954;SDS011;8594;52.052;8.354;2022-07-23T14:15:29;3.00;;;1.20;;
16954;SDS011;8594;52.052;8.354;2022-07-23T14:17:57;3.73;;;1.50;;
16954;SDS011;8594;52.052;8.354;2022-07-23T14:20:24;2.87;;;1.17;;
16954;SDS011;8594;52.052;8.354;2022-07-23T14:22:52;3.40;;;1.30;;
16954;SDS011;8594;52.052;8.354;2022-07-23T14:25:20;3.23;;;1.47;;
16954;SDS011;8594;52.052;8.354;2022-07-23T14:27:47;2.43;;;1.23;;
16954;SDS011;8594;52.052;8.354;2022-07-23T14:30:14;3.33;;;1.40;;
16954;SDS011;8594;52.052;8.354;2022-07-23T14:32:41;1.83;;;1.27;;
16954;SDS011;8594;52.052;8.354;2022-07-23T14:35:08;3.27;;;1.37;;
16954;SDS011;8594;52.052;8.354;2022-07-23T14:37:35;2.30;;;1.37;;
16954;SDS011;8594;52.052;8.354;2022-07-23T14:40:04;2.47;;;1.20;;
16954;SDS011;8594;52.052;8.354;2022-07-23T14:42:32;5.53;;;1.70;;
16954;SDS011;8594;52.052;8.354;2022-07-23T14:44:59;3.17;;;1.50;;
16954;SDS011;8594;52.052;8.354;2022-07-23T14:47:25;5.87;;;1.40;;
16954;SDS011;8594;52.052;8.354;2022-07-23T14:49:52;2.20;;;1.27;;
16954;SDS011;8594;52.052;8.354;2022-07-23T14:52:19;3.50;;;1.43;;
16954;SDS011;8594;52.052;8.354;2022-07-23T14:54:46;3.47;;;1.53;;
16954;SDS011;8594;52.052;8.354;2022-07-23T14:57:14;3.20;;;1.40;;
16954;SDS011;8594;52.052;8.354;2022-07-23T14:59:42;3.80;;;1.50;;
16954;SDS011;8594;52.052;8.354;2022-07-23T15:02:08;2.43;;;1.47;;
16954;SDS011;8594;52.052;8.354;2022-07-23T15:04:35;3.10;;;1.77;;
16954;SDS011;8594;52.052;8.354;2022-07-23T15:07:02;2.63;;;1.40;;
16954;SDS011;8594;52.052;8.354;2022-07-23T15:09:29;2.23;;;1.50;;
16954;SDS011;8594;52.052;8.354;2022-07-23T15:11:56;3.40;;;1.30;;
16954;SDS011;8594;52.052;8.354;2022-07-23T15:14:24;2.50;;;1.80;;
16954;SDS011;8594;52.052;8.354;2022-07-23T15:16:51;4.40;;;1.90;;
16954;SDS011;8594;52.052;8.354;2022-07-23T15:19:19;3.07;;;1.40;;
16954;SDS011;8594;52.052;8.354;2022-07-23T15:21:47;2.83;;;1.47;;
16954;SDS011;8594;52.052;8.354;2022-07-23T15:24:14;3.93;;;1.63;;
16954;SDS011;8594;52.052;8.354;2022-07-23T15:26:41;3.10;;;1.30;;